Results: 2019 ITU World Triathlon Grand Final Lausanne | 70-74 Female AG Sprint
Lausanne, Switzerland • 31 Aug, 2019
Pos First Name Last Name YOB Country Start
Num
Time Swim T1 Bike T2 Run
1 Lynda Lubelczyk 1948 USA 11497 01:35:03 00:17:59 00:03:45 00:40:25 00:03:03 00:29:50
2 Roisin Lynch 1949 IRL 11510 01:36:12 00:18:45 00:03:22 00:43:24 00:02:46 00:27:53
3 Barbara Walton 1949 GBR 11506 01:37:05 00:18:34 00:04:06 00:42:49 00:02:09 00:29:26
4 Jane Mountford 1948 AUS 11501 01:37:24 00:16:00 00:04:04 00:43:14 00:02:50 00:31:14
5 Sonia Yevich 1949 USA 11492 01:45:43 00:18:13 00:04:20 00:47:05 00:02:44 00:33:20
6 Jeanette Sue Graves 1949 GBR 11504 01:46:35 00:20:09 00:04:39 00:47:08 00:02:49 00:31:49
7 Margaret Dalziel 1949 NZL 11511 01:47:41 00:18:01 00:03:54 00:46:10 00:03:34 00:36:00
8 Inge Stettner 1948 GER 11509 01:48:52 00:19:19 00:05:31 00:45:43 00:03:38 00:34:39
9 Shirley Jean Rolston 1949 NZL 11512 01:49:17 00:19:51 00:05:02 00:46:45 00:02:53 00:34:45
10 Christine Sleight 1949 GBR 11505 01:52:37 00:17:26 00:05:00 00:45:39 00:03:32 00:40:58
11 Catherine Williams 1949 GBR 11507 01:55:04 00:20:22 00:03:54 00:48:11 00:03:25 00:39:10
12 Kathleen M Doswell 1949 USA 11490 01:55:35 00:20:14 00:04:24 00:55:54 00:02:34 00:32:26
13 Jenny Peel 1946 GBR 11508 01:55:45 00:22:52 00:04:15 00:50:17 00:03:03 00:35:17
14 Barbara Kostner 1948 USA 11496 01:58:00 00:22:44 00:04:43 00:48:09 00:03:08 00:39:15
15 Kathy Schreckengost 1948 USA 11498 02:05:39 00:26:32 00:05:37 00:51:57 00:04:00 00:37:32
16 Mary Beth Price 1949 USA 11491 02:07:57 00:23:51 00:04:47 00:57:07 00:04:02 00:38:09
17 Jocelyne Petit 1947 CAN 11503 02:15:05 00:28:03 00:06:10 00:56:10 00:04:36 00:40:04
18 Kathy Calabretta 1948 USA 11493 02:16:47 00:27:34 00:06:17 00:59:57 00:03:33 00:39:24
19 Heidi Hoffmann 1948 USA 11495 02:16:48 00:25:27 00:05:53 00:53:50 00:04:03 00:47:32
20 Rosalind Mckie 1946 AUS 11502 02:20:49 00:23:51 00:05:56 01:01:17 00:03:40 00:46:03
21 Nancy Hays 1948 USA 11494 02:32:11 00:27:58 00:07:23 01:00:46 00:05:12 00:50:51
Program notes:

Technical delegate: Bex Stubbings/GBR. Head referee: Leslie Buchanan/CAN. Competition Jury: Bex Stubbings/GBR, Terry Sheldrake/NZL, Pascal Salamin/SUI
Distances: Swim 750 m (1 lap), Bike 20 km (2 laps), Run 5 km (point to point)
Water temperature 22.4ºC Wetsuits not allowed.